sensor_id;sensor_type;location;lat;lon;timestamp;P1;durP1;ratioP1;P2;durP2;ratioP2
45522;SDS011;31254;51.680;5.394;2024-03-02T00:00:56;2.90;;;1.30;;
45522;SDS011;31254;51.680;5.394;2024-03-02T00:03:23;3.90;;;1.27;;
45522;SDS011;31254;51.680;5.394;2024-03-02T00:05:50;2.20;;;1.00;;
45522;SDS011;31254;51.680;5.394;2024-03-02T00:08:21;4.20;;;1.00;;
45522;SDS011;31254;51.680;5.394;2024-03-02T00:10:50;2.45;;;1.30;;
45522;SDS011;31254;51.680;5.394;2024-03-02T00:13:19;2.72;;;1.20;;
45522;SDS011;31254;51.680;5.394;2024-03-02T00:15:51;1.65;;;1.15;;
45522;SDS011;31254;51.680;5.394;2024-03-02T00:18:20;2.00;;;1.20;;
45522;SDS011;31254;51.680;5.394;2024-03-02T00:20:54;2.28;;;1.02;;
45522;SDS011;31254;51.680;5.394;2024-03-02T00:23:23;3.33;;;0.90;;
45522;SDS011;31254;51.680;5.394;2024-03-02T00:25:51;2.65;;;1.00;;
45522;SDS011;31254;51.680;5.394;2024-03-02T00:30:56;2.40;;;0.93;;
45522;SDS011;31254;51.680;5.394;2024-03-02T00:33:27;3.33;;;1.25;;
45522;SDS011;31254;51.680;5.394;2024-03-02T00:35:59;1.60;;;1.10;;
45522;SDS011;31254;51.680;5.394;2024-03-02T00:38:26;1.65;;;1.00;;
45522;SDS011;31254;51.680;5.394;2024-03-02T00:40:53;3.05;;;1.02;;
45522;SDS011;31254;51.680;5.394;2024-03-02T00:45:50;2.92;;;1.15;;
45522;SDS011;31254;51.680;5.394;2024-03-02T00:48:16;1.73;;;0.80;;
45522;SDS011;31254;51.680;5.394;2024-03-02T00:50:43;2.10;;;1.00;;
45522;SDS011;31254;51.680;5.394;2024-03-02T00:53:10;2.25;;;1.00;;
45522;SDS011;31254;51.680;5.394;2024-03-02T00:55:38;2.03;;;0.80;;
45522;SDS011;31254;51.680;5.394;2024-03-02T00:58:10;2.67;;;1.30;;
45522;SDS011;31254;51.680;5.394;2024-03-02T01:00:37;1.67;;;0.70;;
45522;SDS011;31254;51.680;5.394;2024-03-02T01:03:04;2.00;;;1.05;;
45522;SDS011;31254;51.680;5.394;2024-03-02T01:05:44;1.63;;;0.95;;
45522;SDS011;31254;51.680;5.394;2024-03-02T01:08:11;2.35;;;0.88;;
45522;SDS011;31254;51.680;5.394;2024-03-02T01:10:38;2.05;;;0.88;;
45522;SDS011;31254;51.680;5.394;2024-03-02T01:13:04;2.03;;;0.77;;
45522;SDS011;31254;51.680;5.394;2024-03-02T01:15:31;3.42;;;0.90;;
45522;SDS011;31254;51.680;5.394;2024-03-02T01:17:58;1.27;;;0.90;;
45522;SDS011;31254;51.680;5.394;2024-03-02T01:20:25;1.40;;;0.80;;
45522;SDS011;31254;51.680;5.394;2024-03-02T01:22:52;2.00;;;0.70;;
45522;SDS011;31254;51.680;5.394;2024-03-02T01:25:18;2.17;;;0.82;;
45522;SDS011;31254;51.680;5.394;2024-03-02T01:27:45;3.00;;;1.10;;
45522;SDS011;31254;51.680;5.394;2024-03-02T01:30:15;1.20;;;0.80;;
45522;SDS011;31254;51.680;5.394;2024-03-02T01:32:42;2.47;;;0.70;;
45522;SDS011;31254;51.680;5.394;2024-03-02T01:35:09;0.88;;;0.70;;
45522;SDS011;31254;51.680;5.394;2024-03-02T01:37:36;1.77;;;0.85;;
45522;SDS011;31254;51.680;5.394;2024-03-02T01:40:03;1.48;;;0.80;;
45522;SDS011;31254;51.680;5.394;2024-03-02T01:42:38;1.10;;;0.70;;
45522;SDS011;31254;51.680;5.394;2024-03-02T01:45:05;1.55;;;0.70;;
45522;SDS011;31254;51.680;5.394;2024-03-02T01:47:32;0.50;;;0.50;;
45522;SDS011;31254;51.680;5.394;2024-03-02T01:49:59;1.75;;;0.70;;
45522;SDS011;31254;51.680;5.394;2024-03-02T01:52:27;1.25;;;0.70;;
45522;SDS011;31254;51.680;5.394;2024-03-02T01:54:53;1.08;;;0.60;;
45522;SDS011;31254;51.680;5.394;2024-03-02T01:57:20;0.90;;;0.70;;
45522;SDS011;31254;51.680;5.394;2024-03-02T01:59:47;1.55;;;0.75;;
45522;SDS011;31254;51.680;5.394;2024-03-02T02:02:14;3.88;;;0.68;;
45522;SDS011;31254;51.680;5.394;2024-03-02T02:04:41;1.20;;;0.70;;
45522;SDS011;31254;51.680;5.394;2024-03-02T02:07:08;0.82;;;0.50;;
45522;SDS011;31254;51.680;5.394;2024-03-02T02:09:35;1.17;;;0.70;;
45522;SDS011;31254;51.680;5.394;2024-03-02T02:12:02;0.88;;;0.50;;
45522;SDS011;31254;51.680;5.394;2024-03-02T02:14:32;1.00;;;0.65;;
45522;SDS011;31254;51.680;5.394;2024-03-02T02:16:59;1.10;;;0.50;;
45522;SDS011;31254;51.680;5.394;2024-03-02T02:19:26;0.82;;;0.57;;
45522;SDS011;31254;51.680;5.394;2024-03-02T02:21:52;0.80;;;0.60;;
45522;SDS011;31254;51.680;5.394;2024-03-02T02:24:19;1.85;;;0.63;;
45522;SDS011;31254;51.680;5.394;2024-03-02T02:26:46;1.10;;;0.68;;
45522;SDS011;31254;51.680;5.394;2024-03-02T02:29:12;2.85;;;0.60;;
45522;SDS011;31254;51.680;5.394;2024-03-02T02:31:39;1.63;;;0.70;;
45522;SDS011;31254;51.680;5.394;2024-03-02T02:34:06;0.50;;;0.40;;
45522;SDS011;31254;51.680;5.394;2024-03-02T02:36:33;1.20;;;0.60;;
45522;SDS011;31254;51.680;5.394;2024-03-02T02:39:03;0.77;;;0.50;;
45522;SDS011;31254;51.680;5.394;2024-03-02T02:41:31;2.65;;;0.60;;
45522;SDS011;31254;51.680;5.394;2024-03-02T02:43:57;1.40;;;0.70;;
45522;SDS011;31254;51.680;5.394;2024-03-02T02:46:24;0.77;;;0.60;;
45522;SDS011;31254;51.680;5.394;2024-03-02T02:48:51;1.13;;;0.50;;
45522;SDS011;31254;51.680;5.394;2024-03-02T02:51:19;2.30;;;0.60;;
45522;SDS011;31254;51.680;5.394;2024-03-02T02:53:47;1.10;;;0.60;;
45522;SDS011;31254;51.680;5.394;2024-03-02T02:56:13;0.40;;;0.40;;
45522;SDS011;31254;51.680;5.394;2024-03-02T02:58:40;0.60;;;0.50;;
45522;SDS011;31254;51.680;5.394;2024-03-02T03:01:08;1.95;;;0.80;;
45522;SDS011;31254;51.680;5.394;2024-03-02T03:03:34;0.75;;;0.50;;
45522;SDS011;31254;51.680;5.394;2024-03-02T03:06:01;0.98;;;0.50;;
45522;SDS011;31254;51.680;5.394;2024-03-02T03:08:28;0.90;;;0.60;;
45522;SDS011;31254;51.680;5.394;2024-03-02T03:10:55;0.43;;;0.43;;
45522;SDS011;31254;51.680;5.394;2024-03-02T03:13:21;1.58;;;0.68;;
45522;SDS011;31254;51.680;5.394;2024-03-02T03:15:51;0.75;;;0.50;;
45522;SDS011;31254;51.680;5.394;2024-03-02T03:18:17;1.60;;;0.60;;
45522;SDS011;31254;51.680;5.394;2024-03-02T03:20:44;1.58;;;0.60;;
45522;SDS011;31254;51.680;5.394;2024-03-02T03:23:11;1.63;;;0.80;;
45522;SDS011;31254;51.680;5.394;2024-03-02T03:25:44;1.25;;;0.55;;
45522;SDS011;31254;51.680;5.394;2024-03-02T03:28:10;0.50;;;0.47;;
45522;SDS011;31254;51.680;5.394;2024-03-02T03:30:37;0.77;;;0.50;;
45522;SDS011;31254;51.680;5.394;2024-03-02T03:33:05;2.50;;;0.50;;
45522;SDS011;31254;51.680;5.394;2024-03-02T03:35:32;1.00;;;0.50;;
45522;SDS011;31254;51.680;5.394;2024-03-02T03:37:59;1.27;;;0.50;;
45522;SDS011;31254;51.680;5.394;2024-03-02T03:40:25;1.15;;;0.50;;
45522;SDS011;31254;51.680;5.394;2024-03-02T03:42:52;0.70;;;0.43;;
45522;SDS011;31254;51.680;5.394;2024-03-02T03:45:19;0.73;;;0.50;;
45522;SDS011;31254;51.680;5.394;2024-03-02T03:47:46;0.60;;;0.50;;
45522;SDS011;31254;51.680;5.394;2024-03-02T03:50:13;1.27;;;0.50;;
45522;SDS011;31254;51.680;5.394;2024-03-02T03:52:42;0.70;;;0.40;;
45522;SDS011;31254;51.680;5.394;2024-03-02T03:55:09;2.08;;;0.57;;
45522;SDS011;31254;51.680;5.394;2024-03-02T03:57:36;0.85;;;0.47;;
45522;SDS011;31254;51.680;5.394;2024-03-02T04:00:03;0.73;;;0.50;;
45522;SDS011;31254;51.680;5.394;2024-03-02T04:02:30;1.27;;;0.50;;
45522;SDS011;31254;51.680;5.394;2024-03-02T04:04:57;0.45;;;0.45;;
45522;SDS011;31254;51.680;5.394;2024-03-02T04:07:23;1.17;;;0.50;;
45522;SDS011;31254;51.680;5.394;2024-03-02T04:09:50;0.68;;;0.50;;
45522;SDS011;31254;51.680;5.394;2024-03-02T04:12:16;2.65;;;0.52;;
45522;SDS011;31254;51.680;5.394;2024-03-02T04:14:43;2.05;;;0.30;;
45522;SDS011;31254;51.680;5.394;2024-03-02T04:17:09;0.77;;;0.40;;
45522;SDS011;31254;51.680;5.394;2024-03-02T04:19:36;1.15;;;0.50;;
45522;SDS011;31254;51.680;5.394;2024-03-02T04:22:03;1.48;;;0.45;;
45522;SDS011;31254;51.680;5.394;2024-03-02T04:24:43;1.85;;;0.45;;
45522;SDS011;31254;51.680;5.394;2024-03-02T04:27:10;1.05;;;0.40;;
45522;SDS011;31254;51.680;5.394;2024-03-02T04:29:36;2.05;;;0.40;;
45522;SDS011;31254;51.680;5.394;2024-03-02T04:32:03;0.47;;;0.30;;
45522;SDS011;31254;51.680;5.394;2024-03-02T04:34:30;0.70;;;0.50;;
45522;SDS011;31254;51.680;5.394;2024-03-02T04:36:56;0.32;;;0.30;;
45522;SDS011;31254;51.680;5.394;2024-03-02T04:39:23;0.93;;;0.57;;
45522;SDS011;31254;51.680;5.394;2024-03-02T04:41:51;0.73;;;0.50;;
45522;SDS011;31254;51.680;5.394;2024-03-02T04:44:17;1.25;;;0.60;;
45522;SDS011;31254;51.680;5.394;2024-03-02T04:46:44;0.60;;;0.40;;
45522;SDS011;31254;51.680;5.394;2024-03-02T04:49:10;1.00;;;0.30;;
45522;SDS011;31254;51.680;5.394;2024-03-02T04:51:37;0.82;;;0.40;;
45522;SDS011;31254;51.680;5.394;2024-03-02T04:54:18;1.55;;;0.50;;
45522;SDS011;31254;51.680;5.394;2024-03-02T04:56:45;0.88;;;0.40;;
45522;SDS011;31254;51.680;5.394;2024-03-02T04:59:16;0.47;;;0.40;;
45522;SDS011;31254;51.680;5.394;2024-03-02T05:01:44;1.00;;;0.40;;
45522;SDS011;31254;51.680;5.394;2024-03-02T05:04:11;1.00;;;0.40;;
45522;SDS011;31254;51.680;5.394;2024-03-02T05:06:38;1.13;;;0.50;;
45522;SDS011;31254;51.680;5.394;2024-03-02T05:09:08;4.03;;;0.43;;
45522;SDS011;31254;51.680;5.394;2024-03-02T05:11:35;0.93;;;0.40;;
45522;SDS011;31254;51.680;5.394;2024-03-02T05:14:05;0.82;;;0.50;;
45522;SDS011;31254;51.680;5.394;2024-03-02T05:16:33;2.20;;;0.40;;
45522;SDS011;31254;51.680;5.394;2024-03-02T05:19:00;0.88;;;0.35;;
45522;SDS011;31254;51.680;5.394;2024-03-02T05:21:27;1.05;;;0.30;;
45522;SDS011;31254;51.680;5.394;2024-03-02T05:23:54;0.30;;;0.30;;
45522;SDS011;31254;51.680;5.394;2024-03-02T05:26:20;1.30;;;0.40;;
45522;SDS011;31254;51.680;5.394;2024-03-02T05:28:47;1.08;;;0.38;;
45522;SDS011;31254;51.680;5.394;2024-03-02T05:31:16;0.60;;;0.43;;
45522;SDS011;31254;51.680;5.394;2024-03-02T05:33:43;1.85;;;0.40;;
45522;SDS011;31254;51.680;5.394;2024-03-02T05:36:10;1.02;;;0.50;;
45522;SDS011;31254;51.680;5.394;2024-03-02T05:38:37;0.55;;;0.40;;
45522;SDS011;31254;51.680;5.394;2024-03-02T05:41:04;1.35;;;0.40;;
45522;SDS011;31254;51.680;5.394;2024-03-02T05:43:31;0.93;;;0.40;;
45522;SDS011;31254;51.680;5.394;2024-03-02T05:45:57;0.60;;;0.47;;
45522;SDS011;31254;51.680;5.394;2024-03-02T05:48:25;0.57;;;0.40;;
45522;SDS011;31254;51.680;5.394;2024-03-02T05:50:55;1.30;;;0.50;;
45522;SDS011;31254;51.680;5.394;2024-03-02T05:53:22;0.40;;;0.40;;
45522;SDS011;31254;51.680;5.394;2024-03-02T05:55:49;0.85;;;0.40;;
45522;SDS011;31254;51.680;5.394;2024-03-02T05:58:21;1.38;;;0.40;;
45522;SDS011;31254;51.680;5.394;2024-03-02T06:01:09;2.22;;;0.50;;
45522;SDS011;31254;51.680;5.394;2024-03-02T06:03:36;3.38;;;0.50;;
45522;SDS011;31254;51.680;5.394;2024-03-02T06:06:02;2.95;;;0.50;;
45522;SDS011;31254;51.680;5.394;2024-03-02T06:08:29;0.47;;;0.32;;
45522;SDS011;31254;51.680;5.394;2024-03-02T06:10:56;0.52;;;0.30;;
45522;SDS011;31254;51.680;5.394;2024-03-02T06:13:23;2.10;;;0.50;;
45522;SDS011;31254;51.680;5.394;2024-03-02T06:15:52;0.22;;;0.20;;
45522;SDS011;31254;51.680;5.394;2024-03-02T06:18:21;1.63;;;0.40;;
45522;SDS011;31254;51.680;5.394;2024-03-02T06:20:48;0.73;;;0.40;;
45522;SDS011;31254;51.680;5.394;2024-03-02T06:23:15;1.50;;;0.60;;
45522;SDS011;31254;51.680;5.394;2024-03-02T06:25:42;1.00;;;0.45;;
45522;SDS011;31254;51.680;5.394;2024-03-02T06:28:08;1.92;;;0.40;;
45522;SDS011;31254;51.680;5.394;2024-03-02T06:30:35;1.73;;;0.40;;
45522;SDS011;31254;51.680;5.394;2024-03-02T06:33:01;1.17;;;0.45;;
45522;SDS011;31254;51.680;5.394;2024-03-02T06:35:30;0.88;;;0.40;;
45522;SDS011;31254;51.680;5.394;2024-03-02T06:37:56;1.42;;;0.40;;
45522;SDS011;31254;51.680;5.394;2024-03-02T06:40:23;2.83;;;0.40;;
45522;SDS011;31254;51.680;5.394;2024-03-02T06:42:49;1.92;;;0.50;;
45522;SDS011;31254;51.680;5.394;2024-03-02T06:45:16;0.60;;;0.30;;
45522;SDS011;31254;51.680;5.394;2024-03-02T06:47:43;1.33;;;0.50;;
45522;SDS011;31254;51.680;5.394;2024-03-02T06:50:10;2.60;;;0.43;;
45522;SDS011;31254;51.680;5.394;2024-03-02T06:52:36;1.23;;;0.45;;
45522;SDS011;31254;51.680;5.394;2024-03-02T06:55:03;2.50;;;0.70;;
45522;SDS011;31254;51.680;5.394;2024-03-02T06:57:30;1.45;;;0.30;;
45522;SDS011;31254;51.680;5.394;2024-03-02T06:59:57;0.95;;;0.40;;
45522;SDS011;31254;51.680;5.394;2024-03-02T07:02:25;2.17;;;0.75;;
45522;SDS011;31254;51.680;5.394;2024-03-02T07:04:53;1.02;;;0.50;;
45522;SDS011;31254;51.680;5.394;2024-03-02T07:07:20;0.60;;;0.30;;
45522;SDS011;31254;51.680;5.394;2024-03-02T07:09:47;0.90;;;0.50;;
45522;SDS011;31254;51.680;5.394;2024-03-02T07:12:14;0.93;;;0.40;;
45522;SDS011;31254;51.680;5.394;2024-03-02T07:14:41;0.68;;;0.50;;
45522;SDS011;31254;51.680;5.394;2024-03-02T07:17:26;0.60;;;0.40;;
45522;SDS011;31254;51.680;5.394;2024-03-02T07:19:52;2.63;;;0.60;;
45522;SDS011;31254;51.680;5.394;2024-03-02T07:22:19;0.60;;;0.30;;
45522;SDS011;31254;51.680;5.394;2024-03-02T07:24:46;1.45;;;0.40;;
45522;SDS011;31254;51.680;5.394;2024-03-02T07:27:12;3.50;;;0.75;;
45522;SDS011;31254;51.680;5.394;2024-03-02T07:29:40;2.70;;;0.50;;
45522;SDS011;31254;51.680;5.394;2024-03-02T07:32:08;2.05;;;0.65;;
45522;SDS011;31254;51.680;5.394;2024-03-02T07:34:36;1.10;;;0.60;;
45522;SDS011;31254;51.680;5.394;2024-03-02T07:37:03;0.73;;;0.40;;
45522;SDS011;31254;51.680;5.394;2024-03-02T07:39:30;2.92;;;0.70;;
45522;SDS011;31254;51.680;5.394;2024-03-02T07:41:57;3.92;;;0.68;;
45522;SDS011;31254;51.680;5.394;2024-03-02T07:44:24;2.38;;;0.55;;
45522;SDS011;31254;51.680;5.394;2024-03-02T07:46:50;1.98;;;0.70;;
45522;SDS011;31254;51.680;5.394;2024-03-02T07:49:17;1.70;;;0.50;;
45522;SDS011;31254;51.680;5.394;2024-03-02T07:51:45;0.65;;;0.40;;
45522;SDS011;31254;51.680;5.394;2024-03-02T07:54:11;1.42;;;0.60;;
45522;SDS011;31254;51.680;5.394;2024-03-02T07:56:38;1.45;;;0.50;;
45522;SDS011;31254;51.680;5.394;2024-03-02T07:59:05;2.15;;;0.57;;
45522;SDS011;31254;51.680;5.394;2024-03-02T08:01:31;1.55;;;0.50;;
45522;SDS011;31254;51.680;5.394;2024-03-02T08:03:59;0.75;;;0.40;;
45522;SDS011;31254;51.680;5.394;2024-03-02T08:06:32;1.30;;;0.60;;
45522;SDS011;31254;51.680;5.394;2024-03-02T08:08:59;1.30;;;0.40;;
45522;SDS011;31254;51.680;5.394;2024-03-02T08:11:27;2.25;;;0.50;;
45522;SDS011;31254;51.680;5.394;2024-03-02T08:13:53;1.08;;;0.40;;
45522;SDS011;31254;51.680;5.394;2024-03-02T08:16:22;3.53;;;0.80;;
45522;SDS011;31254;51.680;5.394;2024-03-02T08:18:49;0.88;;;0.30;;
45522;SDS011;31254;51.680;5.394;2024-03-02T08:21:17;2.88;;;0.50;;
45522;SDS011;31254;51.680;5.394;2024-03-02T08:23:44;1.38;;;0.50;;
45522;SDS011;31254;51.680;5.394;2024-03-02T08:26:11;2.88;;;0.80;;
45522;SDS011;31254;51.680;5.394;2024-03-02T08:28:38;1.50;;;0.70;;
45522;SDS011;31254;51.680;5.394;2024-03-02T08:31:06;2.28;;;0.70;;
45522;SDS011;31254;51.680;5.394;2024-03-02T08:33:34;1.67;;;0.50;;
45522;SDS011;31254;51.680;5.394;2024-03-02T08:36:04;3.35;;;0.70;;
45522;SDS011;31254;51.680;5.394;2024-03-02T08:38:31;3.83;;;0.85;;
45522;SDS011;31254;51.680;5.394;2024-03-02T08:40:57;3.22;;;0.73;;
45522;SDS011;31254;51.680;5.394;2024-03-02T08:43:24;2.47;;;0.60;;
45522;SDS011;31254;51.680;5.394;2024-03-02T08:45:51;1.55;;;0.52;;
45522;SDS011;31254;51.680;5.394;2024-03-02T08:48:18;2.80;;;0.70;;
45522;SDS011;31254;51.680;5.394;2024-03-02T08:50:44;1.05;;;0.52;;
45522;SDS011;31254;51.680;5.394;2024-03-02T08:53:11;2.30;;;0.65;;
45522;SDS011;31254;51.680;5.394;2024-03-02T08:55:38;1.48;;;0.68;;
45522;SDS011;31254;51.680;5.394;2024-03-02T08:58:04;2.13;;;0.80;;
45522;SDS011;31254;51.680;5.394;2024-03-02T09:00:32;0.90;;;0.57;;
45522;SDS011;31254;51.680;5.394;2024-03-02T09:02:59;2.38;;;0.77;;
45522;SDS011;31254;51.680;5.394;2024-03-02T09:05:25;1.92;;;0.68;;
45522;SDS011;31254;51.680;5.394;2024-03-02T09:07:52;2.55;;;0.70;;
45522;SDS011;31254;51.680;5.394;2024-03-02T09:10:18;1.35;;;0.55;;
45522;SDS011;31254;51.680;5.394;2024-03-02T09:12:45;2.72;;;0.70;;
45522;SDS011;31254;51.680;5.394;2024-03-02T09:15:12;2.28;;;0.68;;
45522;SDS011;31254;51.680;5.394;2024-03-02T09:17:38;3.05;;;0.70;;
45522;SDS011;31254;51.680;5.394;2024-03-02T09:20:05;2.42;;;0.77;;
45522;SDS011;31254;51.680;5.394;2024-03-02T09:22:32;3.15;;;0.52;;
45522;SDS011;31254;51.680;5.394;2024-03-02T09:24:58;4.65;;;0.82;;
45522;SDS011;31254;51.680;5.394;2024-03-02T09:27:25;2.60;;;0.50;;
45522;SDS011;31254;51.680;5.394;2024-03-02T09:29:52;1.33;;;0.60;;
45522;SDS011;31254;51.680;5.394;2024-03-02T09:32:19;2.17;;;0.60;;
45522;SDS011;31254;51.680;5.394;2024-03-02T09:34:45;4.95;;;0.80;;
45522;SDS011;31254;51.680;5.394;2024-03-02T09:37:14;2.05;;;0.80;;
45522;SDS011;31254;51.680;5.394;2024-03-02T09:39:43;2.30;;;0.70;;
45522;SDS011;31254;51.680;5.394;2024-03-02T09:42:11;5.90;;;1.00;;
45522;SDS011;31254;51.680;5.394;2024-03-02T09:44:38;5.30;;;0.70;;
45522;SDS011;31254;51.680;5.394;2024-03-02T09:47:06;3.00;;;0.75;;
45522;SDS011;31254;51.680;5.394;2024-03-02T09:49:33;3.33;;;0.68;;
45522;SDS011;31254;51.680;5.394;2024-03-02T09:52:03;5.93;;;0.73;;
45522;SDS011;31254;51.680;5.394;2024-03-02T09:54:31;6.85;;;1.00;;
45522;SDS011;31254;51.680;5.394;2024-03-02T09:56:58;2.03;;;0.70;;
45522;SDS011;31254;51.680;5.394;2024-03-02T09:59:25;5.93;;;0.80;;
45522;SDS011;31254;51.680;5.394;2024-03-02T10:01:55;3.13;;;0.65;;
45522;SDS011;31254;51.680;5.394;2024-03-02T10:04:25;2.75;;;0.80;;
45522;SDS011;31254;51.680;5.394;2024-03-02T10:07:09;4.68;;;0.93;;
45522;SDS011;31254;51.680;5.394;2024-03-02T10:09:43;6.40;;;1.13;;
45522;SDS011;31254;51.680;5.394;2024-03-02T10:12:12;3.28;;;0.70;;
45522;SDS011;31254;51.680;5.394;2024-03-02T10:14:39;4.50;;;0.70;;
45522;SDS011;31254;51.680;5.394;2024-03-02T10:17:07;3.58;;;0.82;;
45522;SDS011;31254;51.680;5.394;2024-03-02T10:19:35;3.22;;;0.60;;
45522;SDS011;31254;51.680;5.394;2024-03-02T10:22:04;7.45;;;0.70;;
45522;SDS011;31254;51.680;5.394;2024-03-02T10:24:36;2.88;;;0.70;;
45522;SDS011;31254;51.680;5.394;2024-03-02T10:27:07;5.53;;;0.80;;
45522;SDS011;31254;51.680;5.394;2024-03-02T10:29:38;2.90;;;0.73;;
45522;SDS011;31254;51.680;5.394;2024-03-02T10:32:09;2.65;;;0.60;;
45522;SDS011;31254;51.680;5.394;2024-03-02T10:34:40;8.15;;;0.82;;
45522;SDS011;31254;51.680;5.394;2024-03-02T10:37:08;4.22;;;0.73;;
45522;SDS011;31254;51.680;5.394;2024-03-02T10:39:37;5.43;;;0.82;;
45522;SDS011;31254;51.680;5.394;2024-03-02T10:42:07;3.85;;;0.80;;
45522;SDS011;31254;51.680;5.394;2024-03-02T10:44:34;4.97;;;0.93;;
45522;SDS011;31254;51.680;5.394;2024-03-02T10:47:02;8.30;;;0.90;;
45522;SDS011;31254;51.680;5.394;2024-03-02T10:49:31;7.95;;;1.10;;
45522;SDS011;31254;51.680;5.394;2024-03-02T10:51:58;4.25;;;1.05;;
45522;SDS011;31254;51.680;5.394;2024-03-02T10:54:26;5.47;;;0.65;;
45522;SDS011;31254;51.680;5.394;2024-03-02T10:56:55;8.65;;;1.15;;
45522;SDS011;31254;51.680;5.394;2024-03-02T11:01:53;3.70;;;0.52;;
45522;SDS011;31254;51.680;5.394;2024-03-02T11:04:25;5.40;;;0.80;;
45522;SDS011;31254;51.680;5.394;2024-03-02T11:07:00;5.38;;;0.70;;
45522;SDS011;31254;51.680;5.394;2024-03-02T11:09:33;7.85;;;1.08;;
45522;SDS011;31254;51.680;5.394;2024-03-02T11:12:23;10.60;;;1.08;;
45522;SDS011;31254;51.680;5.394;2024-03-02T11:14:57;21.05;;;1.80;;
45522;SDS011;31254;51.680;5.394;2024-03-02T11:17:24;11.95;;;1.25;;
45522;SDS011;31254;51.680;5.394;2024-03-02T11:19:52;6.57;;;0.73;;
45522;SDS011;31254;51.680;5.394;2024-03-02T11:22:19;4.15;;;1.10;;
45522;SDS011;31254;51.680;5.394;2024-03-02T11:24:50;10.15;;;1.02;;
45522;SDS011;31254;51.680;5.394;2024-03-02T11:33:01;5.00;;;1.02;;
45522;SDS011;31254;51.680;5.394;2024-03-02T11:35:42;5.07;;;1.48;;
45522;SDS011;31254;51.680;5.394;2024-03-02T11:38:11;4.45;;;0.90;;
45522;SDS011;31254;51.680;5.394;2024-03-02T11:40:41;3.10;;;0.65;;
45522;SDS011;31254;51.680;5.394;2024-03-02T11:43:08;5.03;;;0.70;;
45522;SDS011;31254;51.680;5.394;2024-03-02T11:45:35;3.53;;;1.00;;
45522;SDS011;31254;51.680;5.394;2024-03-02T11:48:06;3.47;;;0.77;;
45522;SDS011;31254;51.680;5.394;2024-03-02T11:53:05;5.72;;;0.75;;
45522;SDS011;31254;51.680;5.394;2024-03-02T11:55:35;3.25;;;0.80;;
45522;SDS011;31254;51.680;5.394;2024-03-02T11:58:03;5.28;;;0.80;;
45522;SDS011;31254;51.680;5.394;2024-03-02T12:00:30;2.50;;;0.70;;
45522;SDS011;31254;51.680;5.394;2024-03-02T12:03:04;2.45;;;0.65;;
45522;SDS011;31254;51.680;5.394;2024-03-02T12:05:33;5.35;;;0.70;;
45522;SDS011;31254;51.680;5.394;2024-03-02T12:08:00;3.72;;;0.65;;
45522;SDS011;31254;51.680;5.394;2024-03-02T12:10:33;7.30;;;0.77;;
45522;SDS011;31254;51.680;5.394;2024-03-02T12:13:01;3.85;;;0.65;;
45522;SDS011;31254;51.680;5.394;2024-03-02T12:15:37;2.35;;;0.60;;
45522;SDS011;31254;51.680;5.394;2024-03-02T12:18:06;3.42;;;0.60;;
45522;SDS011;31254;51.680;5.394;2024-03-02T12:20:33;4.85;;;0.70;;
45522;SDS011;31254;51.680;5.394;2024-03-02T12:23:01;4.47;;;1.10;;
45522;SDS011;31254;51.680;5.394;2024-03-02T12:25:30;2.90;;;0.93;;
45522;SDS011;31254;51.680;5.394;2024-03-02T12:27:58;4.03;;;1.10;;
45522;SDS011;31254;51.680;5.394;2024-03-02T12:30:29;6.22;;;0.98;;
45522;SDS011;31254;51.680;5.394;2024-03-02T12:32:56;13.07;;;1.10;;
45522;SDS011;31254;51.680;5.394;2024-03-02T12:35:24;2.85;;;0.73;;
45522;SDS011;31254;51.680;5.394;2024-03-02T12:37:51;4.13;;;1.60;;
45522;SDS011;31254;51.680;5.394;2024-03-02T12:40:19;4.97;;;1.30;;
45522;SDS011;31254;51.680;5.394;2024-03-02T12:42:48;4.55;;;1.00;;
45522;SDS011;31254;51.680;5.394;2024-03-02T12:45:16;3.90;;;0.90;;
45522;SDS011;31254;51.680;5.394;2024-03-02T12:47:50;3.45;;;0.80;;
45522;SDS011;31254;51.680;5.394;2024-03-02T12:50:18;6.50;;;1.23;;
45522;SDS011;31254;51.680;5.394;2024-03-02T12:52:50;4.55;;;0.82;;
45522;SDS011;31254;51.680;5.394;2024-03-02T12:55:21;4.38;;;1.00;;
45522;SDS011;31254;51.680;5.394;2024-03-02T12:57:52;6.32;;;1.10;;
45522;SDS011;31254;51.680;5.394;2024-03-02T13:00:19;4.30;;;0.93;;
45522;SDS011;31254;51.680;5.394;2024-03-02T13:02:46;3.40;;;0.80;;
45522;SDS011;31254;51.680;5.394;2024-03-02T13:05:14;3.63;;;1.00;;
45522;SDS011;31254;51.680;5.394;2024-03-02T13:07:41;3.80;;;0.90;;
45522;SDS011;31254;51.680;5.394;2024-03-02T13:10:08;3.15;;;0.80;;
45522;SDS011;31254;51.680;5.394;2024-03-02T13:12:36;5.03;;;1.02;;
45522;SDS011;31254;51.680;5.394;2024-03-02T13:15:03;4.97;;;1.05;;
45522;SDS011;31254;51.680;5.394;2024-03-02T13:17:34;5.30;;;0.90;;
45522;SDS011;31254;51.680;5.394;2024-03-02T13:20:04;4.00;;;0.98;;
45522;SDS011;31254;51.680;5.394;2024-03-02T13:22:35;4.57;;;1.15;;
45522;SDS011;31254;51.680;5.394;2024-03-02T13:25:02;2.95;;;1.00;;
45522;SDS011;31254;51.680;5.394;2024-03-02T13:27:33;4.78;;;1.05;;
45522;SDS011;31254;51.680;5.394;2024-03-02T13:30:00;3.75;;;1.00;;
45522;SDS011;31254;51.680;5.394;2024-03-02T13:32:28;2.22;;;0.60;;
45522;SDS011;31254;51.680;5.394;2024-03-02T13:34:54;2.50;;;0.75;;
45522;SDS011;31254;51.680;5.394;2024-03-02T13:37:21;5.82;;;0.75;;
45522;SDS011;31254;51.680;5.394;2024-03-02T13:39:48;6.55;;;1.08;;
45522;SDS011;31254;51.680;5.394;2024-03-02T13:42:15;3.05;;;0.90;;
45522;SDS011;31254;51.680;5.394;2024-03-02T13:44:45;4.07;;;0.80;;
45522;SDS011;31254;51.680;5.394;2024-03-02T13:47:14;3.97;;;0.98;;
45522;SDS011;31254;51.680;5.394;2024-03-02T13:49:41;2.70;;;0.80;;
45522;SDS011;31254;51.680;5.394;2024-03-02T13:52:12;3.70;;;1.00;;
45522;SDS011;31254;51.680;5.394;2024-03-02T13:54:45;3.55;;;0.90;;
45522;SDS011;31254;51.680;5.394;2024-03-02T13:57:13;4.35;;;1.08;;
45522;SDS011;31254;51.680;5.394;2024-03-02T13:59:40;4.72;;;0.90;;
45522;SDS011;31254;51.680;5.394;2024-03-02T14:02:09;4.05;;;1.15;;
45522;SDS011;31254;51.680;5.394;2024-03-02T14:04:37;3.70;;;0.90;;
45522;SDS011;31254;51.680;5.394;2024-03-02T14:07:05;3.70;;;0.80;;
45522;SDS011;31254;51.680;5.394;2024-03-02T14:09:37;5.15;;;1.00;;
45522;SDS011;31254;51.680;5.394;2024-03-02T14:12:04;8.30;;;1.10;;
45522;SDS011;31254;51.680;5.394;2024-03-02T14:14:32;3.03;;;0.77;;
45522;SDS011;31254;51.680;5.394;2024-03-02T14:16:59;3.08;;;0.90;;
45522;SDS011;31254;51.680;5.394;2024-03-02T14:19:32;2.97;;;0.95;;
45522;SDS011;31254;51.680;5.394;2024-03-02T14:21:59;6.43;;;0.90;;
45522;SDS011;31254;51.680;5.394;2024-03-02T14:24:26;5.30;;;0.73;;
45522;SDS011;31254;51.680;5.394;2024-03-02T14:26:56;2.35;;;0.80;;
45522;SDS011;31254;51.680;5.394;2024-03-02T14:29:41;3.30;;;0.90;;
45522;SDS011;31254;51.680;5.394;2024-03-02T14:32:09;4.88;;;0.80;;
45522;SDS011;31254;51.680;5.394;2024-03-02T14:34:36;3.50;;;0.75;;
45522;SDS011;31254;51.680;5.394;2024-03-02T14:37:05;3.65;;;1.08;;
45522;SDS011;31254;51.680;5.394;2024-03-02T14:39:32;3.22;;;0.85;;
45522;SDS011;31254;51.680;5.394;2024-03-02T14:42:01;3.60;;;0.90;;
45522;SDS011;31254;51.680;5.394;2024-03-02T14:44:27;3.10;;;0.80;;
45522;SDS011;31254;51.680;5.394;2024-03-02T14:46:54;4.90;;;1.25;;
45522;SDS011;31254;51.680;5.394;2024-03-02T14:49:21;2.55;;;0.75;;
45522;SDS011;31254;51.680;5.394;2024-03-02T14:51:47;5.82;;;1.13;;
45522;SDS011;31254;51.680;5.394;2024-03-02T14:54:15;3.55;;;1.02;;
45522;SDS011;31254;51.680;5.394;2024-03-02T14:56:42;2.08;;;0.68;;
45522;SDS011;31254;51.680;5.394;2024-03-02T14:59:09;3.30;;;0.85;;
45522;SDS011;31254;51.680;5.394;2024-03-02T15:01:36;3.58;;;0.88;;
45522;SDS011;31254;51.680;5.394;2024-03-02T15:04:03;3.63;;;0.80;;
45522;SDS011;31254;51.680;5.394;2024-03-02T15:06:30;2.42;;;0.85;;
45522;SDS011;31254;51.680;5.394;2024-03-02T15:08:57;5.13;;;0.82;;